Scatter Wash - ID # 5543

Current at Gage | Station Description | Rating Curve | Rating Table | Cross Section | DSS

Page Last Updated: 12 December 2018


View Larger Map

ID History | Site Data | Brief Rating | Water Year Peaks | Runoff History | Flood Frequency | Staff Gages

Refresh Page   |  ASWR   |   Streamflow Homepage   |   FCD Home Page


GAGE ID HISTORY

ID Elevation of
Instrument
in Gage Height
Elevation of
Instrument
in Datum
Period
       
5543 0.00 feet 1,329.78 feet M.S.L. 11/18/2008 -- Current
5543 0.10 feet 1,329.88 feet M.S.L. 10/01/1997 -- 07/23/2008
5543 0.03 feet 1,329.81 feet M.S.L. 09/18/1996 -- 09/30/1997

Back to Top   |   Streamflow Homepage   |   FCD Home Page

SITE DATA

STATUS Active
LOCATION Located west of 35th Avenue on eastbound Beardsley Road
DRAINAGE AREA 12.4 mi2
STREAM TYPE Channelized Natural Stream
JURISDICTION Phoenix, Arizona
WATERSHED Upper ACDC
SECTION/TOWNSHIP/RANGE S27 T4N R2E
LATITUDE N 33° 40' 08.2"  |  +33.66893
LONGITUDE W 112° 08' 29.8"  |  -112.14160
ARIZONA STATE PLANE E 631613  | N 971030
USGS QUAD SHEET Hedgpeth Hills 7.5-Minute
STREAMGAGE INSTALLATION DATE 09/18/1996 - WY 1996
PERIOD OF AVAILABLE DATA RECORD 09/18/1996 - Current
LENGTH OF AVAILABLE DATA RECORD (AS OF 10/01/2018) 22.03 Years | 8,048 Days
GAPS (> 2 DAYS) IN RECORD 07/23/2008 - 11/18/2008
STAGE GAGE TYPE Pressure Transducer
STAGE GAGE ELEVATION 0.00 feet Gage Height
STAFF GAGES 1
CREST STAGE GAGES 0
ZERO GAGE HEIGHT ELEVATION 1,329.78 feet M.S.L.
POINT OF ZERO FLOW 0.0 feet Gage Height
EXTREME FOR PERIOD OF RECORD 1,784 cfs | 3.42 feet | 07/25/2007

Back to Top   |   Streamflow Homepage   |   FCD Home Page

BRIEF RATING

Current Rating = #5 - Applied since 10/01/2013
Gage
Height
(feet)
Discharge
(cfs)
Gage
Height
(feet)
Discharge
(cfs)
0.00 0 3.89 2,000
1.81 100 4.61 3,000
2.60 590 5.81 5,000
3.02 1,000 6.38 6,100

Back to Top   |   Streamflow Homepage   |   FCD Home Page

WATER YEAR PEAKS

Water
Year
Peak
Gage Height
(feet)
Peak
Discharge
(cfs)
Date of
Peak
2020      
2019      
2018 0.79 16 01/10/2018
2017 1.42 27 12/22/2016
2016 1.94 148 01/07/2016
2015 1.80 378 10/19/2014
2014 3.00 1,223 09/08/2014
2013 2.78 1,215 09/09/2013
2012 1.88 602 08/23/2012
2011 1.95 645 10/05/2010
2010 1.65 481 07/29/2010
2009 None 0 None
2008 2.67 497 12/01/2007
2007 3.42 1,784 07/25/2007
2006 2.355 909 09/02/2006
2005 2.22 824 09/03/2005
2004 1.70 763 04/02/2004
2003 1.73 783 02/14/2003
2002 1.17 400 07/14/2002
2001 1.33 491 10/27/2000
2000 1.00 304 08/07/2000
1999 1.05 330 08/10/1999
1998 1.30 475 07/07/1998
1997 0.50 87 09/11/1997
1996 (partial) None 0 None

Back to Top   |   Streamflow Homepage   |   FCD Home Page

RUNOFF EVENT HISTORY

Date of
Peak
Time of
Peak
Runoff
Start
Runoff
End
Duration
(hours)
Peak
Stage
(feet GH)
Peak
Discharge
(CFS)
Water
Year
View a Plot of These Data
               
07/30/2018 20:53 07/30/2018 19:46 07/31/2018 08:00 12.2 0.67 14 2018
07/11/2018 23:28 07/11/2018 17:08 07/13/2018 00:00 30.9 0.67 14 2018
07/09/2018 18:00 07/09/2018 17:50 07/10/2018 12:00 18.2 0.74 16 2018
01/10/2018 00:00 01/09/2018 23:01 01/10/2018 07:02 8.0 0.79 16 2018
02/28/2017 07:37 02/27/2017 00:00 03/03/2017 09:26 105 1.17 22 2017
02/19/2017 06:00 02/18/2017 06:26 02/21/2017 12:00 77.6 1.25 23 2017
01/23/2017 18:00 01/23/2017 13:24 01/25/2017 14:57 49.6 1.10 21 2017
01/20/2017 15:35 01/20/2017 14:20 01/22/2017 16:54 50.6 1.17 22 2017
01/01/2017 06:11 12/30/2016 18:58 01/04/2017 11:39 113 1.22 23 2017
12/31/2016 05:06 12/30/2016 18:58 01/04/2017 11:39 113 1.22 23 2017
12/22/2016 10:56 12/21/2016 22:01 12/27/2016 08:42 131 1.42 27 2017
11/27/2016 19:03 11/27/2016 18:27 11/29/2016 12:00 41.6 1.07 20 2017
11/20/2016 21:11 11/20/2016 14:48 11/22/2016 10:41 43.9 0.97 19 2017
11/03/2016 18:27 11/03/2016 17:17 11/04/2016 10:30 17.2 0.97 19 2017
08/26/2016 08:44 08/26/2016 06:35 08/29/2016 07:13 72.6 1.34 24 2016
08/23/2016 03:32 08/23/2016 01:11 08/25/2016 15:16 62.1 1.74 81 2016
08/20/2016 19:32 08/20/2016 19:04 08/22/2016 13:51 42.8 1.89 128 2016
08/10/2016 06:54 08/10/2016 06:02 08/12/2016 18:00 60.0 1.69 69 2016
08/05/2016 09:50 08/05/2016 08:48 08/08/2016 12:00 75.2 1.82 103 2016
08/02/2016 22:43 08/02/2016 21:02 08/04/2016 12:00 39.0 1.14 21 2016
04/10/2016 14:04 04/08/2016 02:43 04/16/2016 12:00 201 1.64 59 2016
04/08/2016 03:32 04/08/2016 02:43 04/16/2016 12:00 201 1.74 81 2016
02/01/2016 00:21 01/31/2016 23:27 02/03/2016 12:00 60.6 1.52 39 2016
01/07/2016 13:05 01/07/2016 09:00 01/09/2016 10:21 49.4 1.94 148 2016
01/06/2016 04:21 01/04/2016 21:52 01/06/2016 21:00 47.1 1.89 128 2016
11/15/2015 23:23 11/15/2015 18:35 11/19/2015 09:00 86.4 1.54 42 2016
10/18/2015 17:24 10/17/2015 12:35 10/23/2015 15:00 146 1.59 50 2016
10/06/2015 14:12 10/04/2015 08:43 10/10/2015 03:00 138 1.99 171 2016
09/14/2015 23:31 09/13/2015 22:36 09/14/2015 03:00 4.4 1.37 25 2015
08/12/2015 01:25 08/12/2015 00:43 08/12/2015 22:03 21.3 0.75 16 2015
06/05/2015 19:24 06/05/2015 07:17 06/07/2015 08:31 49.2 0.85 17 2015
05/15/2015 22:59 05/15/2015 21:20 05/18/2015 08:31 59.2 1.60 51 2015
05/04/2015 03:33 05/04/2015 03:09 05/06/2015 08:31 53.4 1.02 20 2015
04/26/2015 05:10 04/24/2015 10:34 04/28/2015 09:05 94.5 1.10 21 2015
03/19/2015 04:53 03/19/2015 04:26 03/21/2015 10:49 54.4 1.45 30 2015
03/02/2015 13:21 03/02/2015 11:48 03/04/2015 14:30 50.7 0.95 19 2015
01/30/2015 12:34 01/30/2015 02:20 02/01/2015 14:12 59.9 0.98 19 2015
01/13/2015 15:02 01/13/2015 13:31 01/14/2015 14:30 25.0 0.65 14 2015
12/31/2014 20:30 12/31/2014 15:18 01/01/2015 06:30 15.2 0.32 8 2015
12/13/2014 05:39 12/13/2014 04:46 12/15/2014 14:29 57.7 1.25 23 2015
12/04/2014 08:22 12/04/2014 06:18 12/06/2014 08:44 50.4 1.58 47 2015
10/19/2014 18:57 10/19/2014 18:41 10/20/2014 17:43 23.0 1.80 97 2015
10/09/2014 05:53 10/09/2014 05:22 10/11/2014 05:43 48.4 1.30 24 2015
09/28/2014 03:51 09/27/2014 14:49 10/01/2014 07:10 88.4 2.12 242 2014
09/27/2014 15:01 09/27/2014 14:49 10/01/2014 07:10 88.4 2.22 296 2014
09/08/2014 03:55 09/08/2014 03:06 09/12/2014 11:43 105 3.00 977 2014
09/06/2014 21:08 09/06/2014 20:31 09/07/2014 23:43 27.2 1.42 28 2014
08/19/2014 09:04 08/18/2014 07:07 08/21/2014 11:43 76.6 2.32 360 2014
08/12/2014 22:28 08/12/2014 21:11 08/13/2014 17:43 20.5 1.78 90 2014
08/01/2014 21:21 08/01/2014 21:09 08/04/2014 08:34 59.4 1.78 90 2014
07/27/2014 00:19 07/27/2014 00:02 07/27/2014 17:42 17.7 1.50 36 2014
07/05/2014 01:24 07/05/2014 01:03 07/05/2014 09:10 8.1 0.68 15 2014
03/01/2014 16:26 03/01/2014 07:33 03/03/2014 16:10 56.6 1.98 164 2014
11/23/2013 01:45 11/22/2013 03:53 11/26/2013 10:48 103 1.60 51 2014
09/09/2013 12:47 09/09/2013 11:35 09/11/2013 11:54 48.3 2.78 1,215 2013
09/08/2013 11:55 09/08/2013 11:30 09/08/2013 14:38 3.1 0.92 191 2013
08/28/2013 19:06 08/28/2013 18:59 08/29/2013 02:42 7.7 1.20 283 2013
08/24/2013 03:40 08/24/2013 03:29 08/24/2013 14:54 11.4 1.30 297 2013
07/21/2013 12:44 07/21/2013 12:14 07/21/2013 14:15 2.0 0.85 139 2013
07/19/2013 22:58 07/19/2013 22:42 07/20/2013 09:52 11.2 1.48 381 2013
07/16/2013 18:49 07/16/2013 18:39 07/16/2013 20:31 1.9 1.20 283 2013
03/08/2013 16:40 03/08/2013 11:24 03/09/2013 10:06 22.7 1.10 269 2013
12/15/2012 16:41 12/15/2012 13:01 12/16/2012 02:40 13.7 1.30 297 2013
12/14/2012 02:49 12/14/2012 02:39 12/14/2012 08:56 6.3 0.88 155 2013
09/12/2012 19:58 09/12/2012 19:38 09/13/2012 01:19 5.7 1.08 265 2012
09/11/2012 01:19 09/11/2012 00:58 09/11/2012 04:06 3.1 0.80 111 2012
09/09/2012 21:10 09/09/2012 21:04 09/09/2012 23:22 2.3 0.85 139 2012
09/07/2012 09:24 09/07/2012 07:47 09/08/2012 00:37 16.8 1.55 422 2012
08/23/2012 02:15 08/23/2012 02:02 08/23/2012 10:45 8.7 1.88 602 2012
08/21/2012 22:48 08/21/2012 22:30 08/22/2012 09:47 11.3 1.35 320 2012
03/18/2012 06:17 03/18/2012 06:00 03/18/2012 10:23 4.4 0.95 211 2012
11/05/2011 01:24 11/05/2011 01:04 11/05/2011 11:12 10.1 1.58 436 2012
08/03/2011 21:56 08/03/2011 21:36 08/04/2011 02:17 4.7 0.90 172 2011
07/31/2011 23:07 07/31/2011 22:41 08/01/2011 04:07 5.4 1.25 290 2011
12/30/2010 03:14 12/29/2010 16:17 12/30/2010 15:08 22.9 1.38 331 2011
12/23/2010 00:33 12/22/2010 20:18 12/23/2010 08:19 12.0 1.08 265 2011
10/05/2010 17:49 10/05/2010 13:15 10/06/2010 08:36 19.4 1.95 645 2011
08/22/2010 02:45 08/22/2010 02:45 08/22/2010 08:12 5.5 0.75 32 2010
08/07/2010 06:22 08/07/2010 06:22 single report 0.0 0.75 32 2010
07/31/2010 13:58 07/31/2010 13:58 07/31/2010 14:51 0.9 0.85 139 2010
07/31/2010 03:57 07/31/2010 03:36 07/31/2010 08:38 5.0 0.95 211 2010
07/29/2010 16:57 07/29/2010 16:42 07/30/2010 09:14 16.5 1.65 481 2010
03/07/2010 13:27 03/07/2010 13:01 03/08/2010 12:53 23.9 1.02 281 2010
02/28/2010 06:40 02/28/2010 01:15 02/28/2010 17:07 15.9 0.98 258 2010
07/10/2008 21:01 07/10/2008 20:42 07/11/2008 02:10 5.5 2.10 238 2008
01/27/2008 23:01 01/27/2008 11:55 01/28/2008 12:10 24.3 2.28 308 2008
12/08/2007 02:36 12/08/2007 01:48 12/08/2007 11:19 9.5 1.95 184 2008
12/01/2007 03:47 11/30/2007 15:54 12/02/2007 09:43 41.8 2.67 497 2008
09/22/2007 16:50 09/22/2007 15:56 09/22/2007 23:24 7.5 1.08 229 2007
08/14/2007 04:34 08/14/2007 04:14 08/14/2007 07:48 3.6 0.82 144 2007
07/25/2007 16:15 07/25/2007 16:00 07/27/2007 00:21 32.4 3.42 1,784 2007
07/23/2007 17:52 07/23/2007 17:23 07/24/2007 18:21 25.0 3.35 1,715 2007
03/24/2007 04:19 03/24/2007 03:59 03/24/2007 13:28 9.5 0.50 62 2007
03/22/2007 22:43 03/22/2007 16:11 03/23/2007 19:28 27.3 1.12 248 2007
02/19/2007 18:22 02/19/2007 17:39 02/20/2007 08:52 15.2 0.52 67 2007
01/31/2007 15:25 01/31/2007 05:05 01/31/2007 23:52 18.8 0.75 122 2007
01/21/2007 12:17 01/21/2007 10:52 01/21/2007 23:52 13.0 0.90 168 2007
01/19/2007 17:52 01/19/2007 14:13 01/20/2007 02:52 12.7 0.85 152 2007
10/14/2006 09:15 10/14/2006 08:59 10/14/2006 16:36 7.6 0.65 95 2007
09/07/2006 01:35 09/07/2006 00:19 09/09/2006 04:35 52.3 1.35 341 2006
09/02/2006 19:14 09/02/2006 19:03 09/05/2006 16:36 69.6 2.35 909 2006
08/24/2006 10:35 08/24/2006 09:42 08/26/2006 13:36 51.9 1.92 637 2006
08/12/2006 02:13 08/12/2006 01:23 08/12/2006 10:35 9.2 0.70 108 2006
07/26/2006 00:13 07/26/2006 00:07 07/26/2006 19:36 19.5 1.70 511 2006
07/21/2006 18:21 07/21/2006 17:57 07/21/2006 22:36 4.6 0.60 83 2006
05/16/2006 19:35 05/16/2006 18:34 05/17/2006 01:35 7.0 0.55 72 2006
03/11/2006 10:36 03/11/2006 07:48 03/12/2006 16:36 32.8 1.12 248 2006
10/18/2005 12:54 10/18/2005 11:33 10/18/2005 23:10 11.6 0.93 176 2006
09/03/2005 19:01 09/03/2005 18:47 09/05/2005 06:15 35.5 2.22 824 2005
08/04/2005 23:05 08/04/2005 22:53 08/05/2005 09:49 10.9 1.20 277 2005
08/02/2005 22:27 08/02/2005 21:49 08/03/2005 15:49 18.0 1.40 363 2005
07/31/2005 19:23 07/31/2005 19:08 08/01/2005 09:49 14.7 1.27 308 2005
07/26/2005 19:01 07/26/2005 18:38 07/28/2005 06:49 36.2 1.33 330 2005
04/24/2005 00:51 04/23/2005 23:53 04/24/2005 06:21 6.5 0.70 108 2005
03/06/2005 12:50 03/06/2005 12:25 03/06/2005 15:50 3.4 0.45 52 2005
02/24/2005 03:20 02/23/2005 23:48 02/24/2005 21:51 22.1 0.88 160 2005
02/22/2005 18:51 02/22/2005 17:51 02/23/2005 10:59 17.1 0.55 72 2005
02/21/2005 21:50 02/21/2005 20:33 02/22/2005 09:51 13.3 0.68 101 2005
02/20/2005 01:48 02/20/2005 00:48 02/20/2005 21:51 21.1 0.90 168 2005
02/19/2005 10:32 02/18/2005 17:36 02/19/2005 23:47 30.2 1.05 220 2005
02/18/2005 00:40 02/17/2005 23:22 02/18/2005 15:03 15.7 0.85 152 2005
02/12/2005 17:52 02/12/2005 17:27 02/13/2005 17:38 24.2 1.62 472 2005
02/12/2005 08:05 02/11/2005 23:26 02/12/2005 16:55 17.5 1.05 220 2005
02/11/2005 16:12 02/11/2005 01:46 02/11/2005 18:52 17.1 0.82 144 2005
01/27/2005 05:37 01/27/2005 05:17 01/27/2005 16:49 11.5 1.27 308 2005
01/26/2005 15:32 01/26/2005 13:46 01/27/2005 03:35 13.8 1.35 341 2005
01/04/2005 14:02 01/04/2005 06:37 01/05/2005 17:37 35.0 1.23 288 2005
01/03/2005 17:37 01/03/2005 11:10 01/04/2005 05:37 18.5 0.88 160 2005
12/29/2004 19:11 12/29/2004 11:10 12/30/2004 11:36 24.4 0.75 122 2005
12/29/2004 05:36 12/28/2004 21:49 12/29/2004 09:28 11.7 0.70 108 2005
12/06/2004 04:00 12/05/2004 23:30 12/06/2004 15:07 15.6 1.05 220 2005
11/22/2004 09:59 11/22/2004 08:45 11/22/2004 22:20 13.6 1.20 277 2005
11/21/2004 06:08 11/21/2004 05:53 11/21/2004 15:52 10.0 0.65 95 2005
11/08/2004 05:34 11/07/2004 22:13 11/08/2004 13:17 15.1 0.82 144 2005
10/28/2004 08:52 10/28/2004 07:40 10/28/2004 21:06 13.4 0.70 108 2005
09/19/2004 15:10 09/19/2004 12:28 09/20/2004 02:06 13.6 1.08 344 2004
09/18/2004 20:35 09/18/2004 20:21 09/19/2004 10:48 14.4 1.65 723 2004
08/14/2004 19:15 08/18/2004 18:52 08/18/2004 22:57 4.1 0.50 83 2004
08/11/2004 18:52 08/11/2004 18:40 08/11/2004 22:57 4.3 1.02 317 2004
04/02/2004 10:42 04/02/2004 05:42 04/03/2004 06:40 25.0 1.70 763 2004
03/05/2004 02:00 03/04/2004 18:55 03/05/2004 17:35 22.7 1.35 507 2004
02/23/2004 07:05 02/23/2004 04:16 02/23/2004 20:44 16.5 1.02 317 2004
11/12/2003 17:35 11/12/2003 13:41 11/13/2003 14:43 25.0 1.05 330 2004
08/31/2003 12:36 08/31/2003 12:36 08/31/2003 18:01 5.4 0.98 291 2003
08/14/2003 20:57 08/14/2003 18:36 08/15/2003 21:09 26.6 1.67 743 2003
08/01/2003 05:34 08/01/2003 05:11 08/02/2003 06:37 25.4 0.93 266 2003
07/29/2003 23:49 07/29/2003 21:34 07/30/2003 06:37 9.1 0.73 176 2003
03/17/2003 17:40 03/17/2003 12:38 03/18/2003 12:25 23.8 1.10 357 2003
03/16/2003 20:53 03/16/2003 20:27 03/17/2003 10:11 13.7 1.30 475 2003
03/16/2003 15:42 03/16/2003 13:32 03/16/2003 19:22 5.8 0.70 166 2003
02/28/2003 03:16 03/16/2003 13:32 03/16/2003 19:22 14.1 0.60 128 2003
02/25/2003 19:24 02/25/2003 16:37 02/26/2003 11:23 18.8 0.85 231 2003
02/14/2003 01:30 02/13/2003 14:35 02/15/2003 10:11 43.6 1.73 783 2003
02/13/2003 10:57 02/13/2003 04:11 02/13/2003 12:43 8.5 0.65 146 2003
01/08/2003 17:06 01/08/2003 11:27 01/08/2003 22:08 10.7 0.47 65 2003
11/30/2002 00:04 11/29/2002 21:57 11/30/2002 07:45 9.8 0.60 128 2003
10/17/2002 20:04 10/17/2002 19:45 10/17/2002 22:55 3.2 0.50 83 2003
09/28/2002 16:35 09/28/2002 16:15 09/28/2002 19:21 3.1 0.45 50 2002
09/07/2002 19:25 09/07/2002 16:44 09/08/2002 08:39 15.9 1.00 304 2002
09/06/2002 23:05 09/06/2002 22:11 09/07/2002 05:09 7.0 0.82 219 2002
07/23/2002 21:15 07/23/2002 20:47 07/24/2002 10:28 13.7 0.80 208 2002
07/14/2002 21:31 07/14/2002 21:20 07/15/2002 17:05 19.8 1.17 400 2002
08/10/2001 04:25 08/10/2001 04:10 08/10/2001 07:26 3.3 0.50 83 2001
08/09/2001 02:01 08/09/2001 01:47 08/09/2001 05:08 3.4 0.70 166 2001
04/06/2001 01:36 04/05/2001 22:51 04/06/2001 05:39 6.8 0.60 128 2001
03/07/2001 10:35 03/07/2001 03:16 03/07/2001 13:37 10.4 0.47 65 2001
02/28/2001 07:36 02/28/2001 06:45 02/28/2001 10:00 3.3 0.50 83 2001
01/27/2001 18:29 01/27/2001 09:54 01/28/2001 09:27 23.6 1.08 344 2001
01/27/2001 06:57 01/27/2001 05:02 01/27/2001 09:54 4.9 0.80 208 2001
01/12/2001 17:47 01/12/2001 17:12 01/13/2001 04:08 10.9 0.80 208 2001
01/12/2001 07:31 01/12/2001 06:23 01/12/2001 15:14 8.9 0.70 166 2001
10/30/2000 18:55 10/30/2000 17:20 10/31/2000 06:15 12.9 1.23 429 2001
10/27/2000 15:07 10/27/2000 14:19 10/28/2000 05:51 15.5 1.33 491 2001
10/24/2000 02:26 10/24/2000 02:10 10/24/2000 04:27 2.3 0.45 50 2001
10/22/2000 03:54 10/22/2000 03:43 10/22/2000 03:54 0.2 0.50 83 2001
08/30/2000 18:00 08/30/2000 16:45 08/30/2000 21:14 4.5 0.60 128 2000
08/29/2000 08:00 08/29/2000 07:15 08/29/2000 09:58 2.7 0.90 254 2000
08/07/2000 21:44 08/07/2000 20:52 08/07/2000 23:48 2.9 1.00 304 2000
08/05/2000 18:53 08/05/2000 18:11 08/05/2000 19:32 1.4 0.47 65 2000
03/06/2000 01:31 03/05/2000 20:32 03/06/2000 20:54 24.4 0.65 146 2000
09/19/1999 19:55 09/19/1999 19:41 09/19/1999 23:08 3.5 0.50 83 1999
09/14/1999 18:31 09/14/1999 18:12 09/14/1999 21:31 3.3 0.70 166 1999
08/27/1999 19:05 08/27/1999 18:52 08/27/1999 21:55 3.1 0.73 176 1999
08/10/1999 17:36 08/10/1999 17:25 08/10/1999 22:28 5.1 1.05 330 1999
08/05/1999 23:33 08/05/1999 23:22 08/06/1999 01:14 1.9 0.50 83 1999
07/15/1999 10:22 07/15/1999 07:10 07/15/1999 18:05 10.9 0.90 254 1999
07/14/1999 16:20 07/14/1999 16:07 07/14/1999 18:29 2.4 0.60 128 1999
07/07/1999 21:15 07/07/1999 20:50 07/07/1999 23:04 2.2 0.60 128 1999
07/06/1999 18:20 07/06/1999 17:44 07/06/1999 23:02 5.3 0.80 208 1999
12/15/1998 07:01 12/15/1998 06:07 12/15/1998 09:02 2.9 0.50 83 1999
12/06/1998 15:14 12/06/1998 14:05 12/06/1998 19:14 5.2 0.57 119 1999
12/02/1998 13:10 12/02/1998 12:56 12/02/1998 17:57 5.0 0.47 65 1999
10/26/1998 07:34 10/26/1998 07:01 10/26/1998 12:18 5.3 0.85 231 1999
10/25/1998 17:16 10/25/1998 16:41 10/25/1998 21:26 4.8 0.57 119 1999
09/11/1998 07:35 09/11/1998 07:00 09/11/1998 21:27 14.5 1.25 444 1998
08/15/1998 21:31 08/15/1998 21:09 08/16/1998 07:43 10.6 0.60 128 1998
08/07/1998 22:55 08/07/1998 22:35 08/08/1998 01:32 3.0 0.75 186 1998
07/07/1998 17:51 07/07/1998 16:50 07/08/1998 05:07 12.3 1.30 475 1998
07/06/1998 23:47 07/06/1998 20:54 07/07/1998 12:04 15.2 1.23 429 1998
03/29/1998 19:59 03/29/1998 19:22 03/30/1998 09:33 14.2 0.55 110 1998
03/28/1998 20:16 03/28/1998 16:59 03/28/1998 23:58 7.0 0.57 119 1998
03/26/1998 13:07 03/26/1998 12:32 03/27/1998 00:44 12.2 0.88 242 1998
02/24/1998 20:16 02/24/1998 20:16 02/25/1998 09:36 13.3 0.68 156 1998
02/17/1998 21:26 02/17/1998 13:47 02/18/1998 10:00 20.2 0.70 166 1998
02/15/1998 02:50 02/15/1998 01:41 02/15/1998 15:07 13.4 0.80 208 1998
02/04/1998 12:00 02/04/1998 12:00 single report 0.0 0.65 146 1998
09/11/1997 12:00 09/11/1997 12:00 single report 0.0 0.50 87 1997

Back to Top   |   Streamflow Homepage   |   FCD Home Page

FLOOD FLOW FREQUENCY

Flood Flow Frequency
Based on 1995 Flood Insurance Study
Magnitude and Probability of Instantaneous Peak Flow  |  Discharge, in cfs, for indicated Recurrence Interval
2-year 5-year 10-year 20-year 50-year 100-year
  220 590 1,320 3,500 6,100
Flood Flow Frequency
Based on HECWRC implementation of Bulletin 17B, n=23, 1997-2018
Magnitude and Probability of Instantaneous Peak Flow  |  Discharge, in cfs, for indicated Recurrence Interval
***NOTE: Flood Flow Frequency data are for information only and should not be considered valid for regulation***
2-year 5-year 10-year 20-year 50-year 100-year
398 1,070 1,670 2,330 3,270 4,010

Back to Top   |   Streamflow Homepage   |   FCD Home Page

STAFF GAGES

Staff Gage Range Staff Gage Information
0 - 5 On Beardsley Road bridge

Back to Top   |   Streamflow Homepage   |   FCD Home Page